createdAt,value
2023-03-10T00:00:06.815Z,5.97
2023-03-10T00:00:37.840Z,5.97
2023-03-10T00:01:09.450Z,5.97
2023-03-10T00:01:37.535Z,5.97
2023-03-10T00:01:57.373Z,5.97
2023-03-10T00:02:28.706Z,5.97
2023-03-10T00:03:01.116Z,5.97
2023-03-10T00:03:32.865Z,5.97
2023-03-10T00:04:04.885Z,5.97
2023-03-10T00:04:37.759Z,5.86
2023-03-10T00:05:09.636Z,5.86
2023-03-10T00:05:37.673Z,5.86
2023-03-10T00:05:57.858Z,5.86
2023-03-10T00:06:28.627Z,5.86
2023-03-10T00:07:01.379Z,5.86
2023-03-10T00:07:33.261Z,5.86
2023-03-10T00:08:05.158Z,5.86
2023-03-10T00:08:37.741Z,5.86
2023-03-10T00:09:08.771Z,5.86
2023-03-10T00:09:37.614Z,5.86
2023-03-10T00:09:57.349Z,5.86
2023-03-10T00:10:29.193Z,5.86
2023-03-10T00:11:00.823Z,5.86
2023-03-10T00:11:17.495Z,5.86
2023-03-10T00:11:38.504Z,5.86
2023-03-10T00:12:04.908Z,5.86
2023-03-10T00:12:37.738Z,5.86
2023-03-10T00:13:08.848Z,5.86
2023-03-10T00:13:37.690Z,5.86
2023-03-10T00:13:58.476Z,5.86
2023-03-10T00:14:29.012Z,5.86
2023-03-10T00:15:02.629Z,5.86
2023-03-10T00:15:19.147Z,5.86
2023-03-10T00:15:39.119Z,5.86
2023-03-10T00:16:05.111Z,5.86
2023-03-10T00:16:37.637Z,5.86
2023-03-10T00:17:09.791Z,5.86
2023-03-10T00:17:37.665Z,5.86
2023-03-10T00:17:57.382Z,5.86
2023-03-10T00:18:28.912Z,5.86
2023-03-10T00:19:00.898Z,5.86
2023-03-10T00:19:17.430Z,5.86
2023-03-10T00:19:38.471Z,5.86
2023-03-10T00:20:06.299Z,5.86
2023-03-10T00:20:38.133Z,5.86
2023-03-10T00:21:08.964Z,5.86
2023-03-10T00:21:38.225Z,5.86
2023-03-10T00:21:57.371Z,5.86
2023-03-10T00:22:28.712Z,5.86
2023-03-10T00:23:01.598Z,5.86
2023-03-10T00:23:32.838Z,5.86
2023-03-10T00:24:04.977Z,5.75
2023-03-10T00:24:38.103Z,5.75
2023-03-10T00:25:09.525Z,5.75
2023-03-10T00:25:37.762Z,5.75
2023-03-10T00:25:58.050Z,5.75
2023-03-10T00:26:28.667Z,5.75
2023-03-10T00:27:00.940Z,5.75
2023-03-10T00:27:32.745Z,5.75
2023-03-10T00:28:04.987Z,5.75
2023-03-10T00:28:37.595Z,5.58
2023-03-10T00:29:08.846Z,5.75
2023-03-10T00:29:37.718Z,5.75
2023-03-10T00:29:57.560Z,5.75
2023-03-10T00:30:32.991Z,5.75
2023-03-10T00:31:01.396Z,5.75
2023-03-10T00:31:33.509Z,5.58
2023-03-10T00:32:07.155Z,5.58
2023-03-10T00:32:37.682Z,5.58
2023-03-10T00:33:09.121Z,5.58
2023-03-10T00:33:38.109Z,5.58
2023-03-10T00:33:57.458Z,5.58
2023-03-10T00:34:29.287Z,5.69
2023-03-10T00:35:02.474Z,5.69
2023-03-10T00:35:17.577Z,5.69
2023-03-10T00:35:39.332Z,5.69
2023-03-10T00:36:05.264Z,5.69
2023-03-10T00:36:37.876Z,5.69
2023-03-10T00:37:08.972Z,5.69
2023-03-10T00:37:38.062Z,5.69
2023-03-10T00:37:57.454Z,5.69
2023-03-10T00:38:30.159Z,5.69
2023-03-10T00:39:01.366Z,5.69
2023-03-10T00:39:32.725Z,5.53
2023-03-10T00:40:06.228Z,5.53
2023-03-10T00:40:37.502Z,5.53
2023-03-10T00:41:08.787Z,5.53
2023-03-10T00:41:37.614Z,5.53
2023-03-10T00:41:57.544Z,5.53
2023-03-10T00:42:28.584Z,5.53
2023-03-10T00:43:00.688Z,5.53
2023-03-10T00:43:17.336Z,5.53
2023-03-10T00:43:38.432Z,5.53
2023-03-10T00:44:04.877Z,5.53
2023-03-10T00:44:37.532Z,5.53
2023-03-10T00:45:09.747Z,5.35
2023-03-10T00:45:37.596Z,5.47
2023-03-10T00:45:57.811Z,5.47
2023-03-10T00:46:29.453Z,5.47
2023-03-10T00:47:00.692Z,5.47
2023-03-10T00:47:17.412Z,5.47
2023-03-10T00:47:38.437Z,5.47
2023-03-10T00:48:04.834Z,5.47
2023-03-10T00:48:37.545Z,5.57
2023-03-10T00:49:08.828Z,5.57
2023-03-10T00:49:37.533Z,5.57
2023-03-10T00:49:57.219Z,5.57
2023-03-10T00:50:29.267Z,5.57
2023-03-10T00:51:00.750Z,5.40
2023-03-10T00:51:17.483Z,5.40
2023-03-10T00:51:38.522Z,5.51
2023-03-10T00:52:04.935Z,5.51
2023-03-10T00:52:37.787Z,5.51
2023-03-10T00:53:08.969Z,5.68
2023-03-10T00:53:37.610Z,5.51
2023-03-10T00:53:57.493Z,5.68
2023-03-10T00:54:28.751Z,5.68
2023-03-10T00:55:01.329Z,5.68
2023-03-10T00:55:17.344Z,5.68
2023-03-10T00:55:38.772Z,5.68
2023-03-10T00:56:04.861Z,5.51
2023-03-10T00:56:37.742Z,5.51
2023-03-10T00:57:09.072Z,5.51
2023-03-10T00:57:37.672Z,5.57
2023-03-10T00:57:57.292Z,5.57
2023-03-10T00:58:29.155Z,5.57
2023-03-10T00:59:00.814Z,5.57
2023-03-10T00:59:17.443Z,5.57
2023-03-10T00:59:49.952Z,5.57
2023-03-10T01:00:06.766Z,5.40
2023-03-10T01:00:37.666Z,5.57
2023-03-10T01:01:09.385Z,5.40
2023-03-10T01:01:37.612Z,5.57
2023-03-10T01:01:57.344Z,5.57
2023-03-10T01:02:28.698Z,5.57
2023-03-10T01:03:00.678Z,5.57
2023-03-10T01:03:17.317Z,5.57
2023-03-10T01:03:38.457Z,5.57
2023-03-10T01:04:05.029Z,5.57
2023-03-10T01:04:37.564Z,5.40
2023-03-10T01:05:09.250Z,5.40
2023-03-10T01:05:37.549Z,5.40
2023-03-10T01:05:57.590Z,5.40
2023-03-10T01:06:28.836Z,5.57
2023-03-10T01:07:00.885Z,5.57
2023-03-10T01:07:33.016Z,5.57
2023-03-10T01:08:04.902Z,5.57
2023-03-10T01:08:37.556Z,5.57
2023-03-10T01:09:08.888Z,5.57
2023-03-10T01:09:37.464Z,5.57
2023-03-10T01:09:57.363Z,5.68
2023-03-10T01:10:29.321Z,5.68
2023-03-10T01:11:00.693Z,5.51
2023-03-10T01:11:17.364Z,5.51
2023-03-10T01:11:38.411Z,5.68
2023-03-10T01:12:04.882Z,5.68
2023-03-10T01:12:37.589Z,5.68
2023-03-10T01:13:08.760Z,5.68
2023-03-10T01:13:39.904Z,5.68
2023-03-10T01:13:57.198Z,5.68
2023-03-10T01:14:28.891Z,5.68
2023-03-10T01:15:02.205Z,5.68
2023-03-10T01:15:17.449Z,5.68
2023-03-10T01:15:38.943Z,5.68
2023-03-10T01:16:05.307Z,5.68
2023-03-10T01:16:37.675Z,5.57
2023-03-10T01:17:08.786Z,5.57
2023-03-10T01:17:37.794Z,5.68
2023-03-10T01:17:57.754Z,5.68
2023-03-10T01:18:28.873Z,5.68
2023-03-10T01:19:00.789Z,5.68
2023-03-10T01:19:17.321Z,5.68
2023-03-10T01:19:38.372Z,5.68
2023-03-10T01:20:06.128Z,5.68
2023-03-10T01:20:37.642Z,5.68
2023-03-10T01:21:08.701Z,5.68
2023-03-10T01:21:37.608Z,5.68
2023-03-10T01:21:57.305Z,5.68
2023-03-10T01:22:28.737Z,5.68
2023-03-10T01:23:01.207Z,5.68
2023-03-10T01:23:32.756Z,5.68
2023-03-10T01:24:04.838Z,5.68
2023-03-10T01:24:37.541Z,5.68
2023-03-10T01:25:09.497Z,5.57
2023-03-10T01:25:37.503Z,5.57
2023-03-10T01:25:57.553Z,5.68
2023-03-10T01:26:28.629Z,5.57
2023-03-10T01:27:01.025Z,5.57
2023-03-10T01:27:17.463Z,5.57
2023-03-10T01:27:38.585Z,5.57
2023-03-10T01:28:04.940Z,5.68
2023-03-10T01:28:37.528Z,5.68
2023-03-10T01:29:09.185Z,5.68
2023-03-10T01:29:37.516Z,5.68
2023-03-10T01:29:57.269Z,5.68
2023-03-10T01:30:30.297Z,5.68
2023-03-10T01:31:00.717Z,5.68
2023-03-10T01:31:17.623Z,5.68
2023-03-10T01:31:38.474Z,5.68
2023-03-10T01:32:04.839Z,5.68
2023-03-10T01:32:37.572Z,5.68
2023-03-10T01:33:08.749Z,5.68
2023-03-10T01:33:37.500Z,5.68
2023-03-10T01:33:57.293Z,5.68
2023-03-10T01:34:28.713Z,5.68
2023-03-10T01:35:01.272Z,5.68
2023-03-10T01:35:17.444Z,5.68
2023-03-10T01:35:38.952Z,5.68
2023-03-10T01:36:05.426Z,5.68
2023-03-10T01:36:38.109Z,5.68
2023-03-10T01:37:08.767Z,5.68
2023-03-10T01:37:38.437Z,5.73
2023-03-10T01:37:57.276Z,5.73
2023-03-10T01:38:28.763Z,5.73
2023-03-10T01:39:00.725Z,5.73
2023-03-10T01:39:17.392Z,5.73
2023-03-10T01:39:38.420Z,5.73
2023-03-10T01:40:06.473Z,5.73
2023-03-10T01:40:38.113Z,5.73
2023-03-10T01:41:09.278Z,5.73
2023-03-10T01:41:37.520Z,5.73
2023-03-10T01:41:57.307Z,5.73
2023-03-10T01:42:28.577Z,5.55
2023-03-10T01:43:00.749Z,5.55
2023-03-10T01:43:17.348Z,5.55
2023-03-10T01:43:38.460Z,5.55
2023-03-10T01:44:04.893Z,5.55
2023-03-10T01:44:37.512Z,5.55
2023-03-10T01:45:11.279Z,5.73
2023-03-10T01:45:37.729Z,5.73
2023-03-10T01:45:57.702Z,5.73
2023-03-10T01:46:28.746Z,5.73
2023-03-10T01:47:00.981Z,5.73
2023-03-10T01:47:17.330Z,5.73
2023-03-10T01:47:38.532Z,5.73
2023-03-10T01:48:04.817Z,5.73
2023-03-10T01:48:37.629Z,5.73
2023-03-10T01:49:08.966Z,5.73
2023-03-10T01:49:37.640Z,5.73
2023-03-10T01:49:57.357Z,5.73
2023-03-10T01:50:29.067Z,5.73
2023-03-10T01:51:01.007Z,5.73
2023-03-10T01:51:17.375Z,5.73
2023-03-10T01:51:38.436Z,5.73
2023-03-10T01:52:04.873Z,5.73
2023-03-10T01:52:37.694Z,5.55
2023-03-10T01:53:08.795Z,5.73
2023-03-10T01:53:37.536Z,5.73
2023-03-10T01:53:57.317Z,5.55
2023-03-10T01:54:28.677Z,5.55
2023-03-10T01:55:01.568Z,5.55
2023-03-10T01:55:17.448Z,5.73
2023-03-10T01:55:38.928Z,5.73
2023-03-10T01:56:04.964Z,5.73
2023-03-10T01:56:37.545Z,5.73
2023-03-10T01:57:08.788Z,5.73
2023-03-10T01:57:37.644Z,5.73
2023-03-10T01:57:57.247Z,5.73
2023-03-10T01:58:28.720Z,5.73
2023-03-10T01:59:00.823Z,5.73
2023-03-10T01:59:17.613Z,5.73
2023-03-10T01:59:38.560Z,5.73
2023-03-10T02:00:06.797Z,5.73
2023-03-10T02:00:37.757Z,5.55
2023-03-10T02:01:09.392Z,5.55
2023-03-10T02:01:37.575Z,5.55
2023-03-10T02:01:57.261Z,5.55
2023-03-10T02:02:28.972Z,5.55
2023-03-10T02:03:00.814Z,5.55
2023-03-10T02:03:17.783Z,5.55
2023-03-10T02:03:38.513Z,5.73
2023-03-10T02:04:04.915Z,5.66
2023-03-10T02:04:37.476Z,5.55
2023-03-10T02:05:09.229Z,5.66
2023-03-10T02:05:37.739Z,5.84
2023-03-10T02:05:57.644Z,5.55
2023-03-10T02:06:28.599Z,5.55
2023-03-10T02:07:00.805Z,5.66
2023-03-10T02:07:33.360Z,5.66
2023-03-10T02:08:04.905Z,5.66
2023-03-10T02:08:37.575Z,5.66
2023-03-10T02:09:08.826Z,5.66
2023-03-10T02:09:37.640Z,5.66
2023-03-10T02:09:58.072Z,5.66
2023-03-10T02:10:28.992Z,5.66
2023-03-10T02:11:00.832Z,5.66
2023-03-10T02:11:33.498Z,5.66
2023-03-10T02:12:04.997Z,5.73
2023-03-10T02:12:37.527Z,5.55
2023-03-10T02:13:08.782Z,5.55
2023-03-10T02:13:37.644Z,5.73
2023-03-10T02:13:57.431Z,5.73
2023-03-10T02:14:28.643Z,5.73
2023-03-10T02:15:02.010Z,5.73
2023-03-10T02:15:18.637Z,5.73
2023-03-10T02:15:38.907Z,5.55
2023-03-10T02:16:05.033Z,5.55
2023-03-10T02:16:37.722Z,5.55
2023-03-10T02:17:08.829Z,5.55
2023-03-10T02:17:37.627Z,5.55
2023-03-10T02:17:57.281Z,5.66
2023-03-10T02:18:28.853Z,5.66
2023-03-10T02:19:00.817Z,5.66
2023-03-10T02:19:17.506Z,5.66
2023-03-10T02:19:38.502Z,5.66
2023-03-10T02:20:06.238Z,5.66
2023-03-10T02:20:37.660Z,5.66
2023-03-10T02:21:08.750Z,5.66
2023-03-10T02:21:37.537Z,5.66
2023-03-10T02:21:57.285Z,5.50
2023-03-10T02:22:28.588Z,5.50
2023-03-10T02:23:00.805Z,5.78
2023-03-10T02:23:33.180Z,5.78
2023-03-10T02:24:04.960Z,5.78
2023-03-10T02:24:37.503Z,5.61
2023-03-10T02:25:09.125Z,5.61
2023-03-10T02:25:37.588Z,5.61
2023-03-10T02:25:57.591Z,5.78
2023-03-10T02:26:28.644Z,5.78
2023-03-10T02:27:00.670Z,5.61
2023-03-10T02:27:17.320Z,5.61
2023-03-10T02:27:38.421Z,5.61
2023-03-10T02:28:04.905Z,5.61
2023-03-10T02:28:37.622Z,5.61
2023-03-10T02:29:08.873Z,5.61
2023-03-10T02:29:45.491Z,5.61
2023-03-10T02:29:59.688Z,5.61
2023-03-10T02:30:28.328Z,5.61
2023-03-10T02:30:59.307Z,5.61
2023-03-10T02:31:16.063Z,5.61
2023-03-10T02:31:37.667Z,5.61
2023-03-10T02:32:03.896Z,5.61
2023-03-10T02:32:36.103Z,5.61
2023-03-10T02:33:08.274Z,5.61
2023-03-10T02:33:36.616Z,5.61
2023-03-10T02:33:56.020Z,5.61
2023-03-10T02:34:27.768Z,5.78
2023-03-10T02:35:00.008Z,5.61
2023-03-10T02:35:16.984Z,5.61
2023-03-10T02:35:37.811Z,5.61
2023-03-10T02:36:04.342Z,5.61
2023-03-10T02:36:36.717Z,5.61
2023-03-10T02:37:09.681Z,5.61
2023-03-10T02:37:36.578Z,5.61
2023-03-10T02:37:56.084Z,5.78
2023-03-10T02:38:28.405Z,5.61
2023-03-10T02:38:59.485Z,5.61
2023-03-10T02:39:16.581Z,5.61
2023-03-10T02:39:37.520Z,5.61
2023-03-10T02:40:04.183Z,5.61
2023-03-10T02:40:36.341Z,5.61
2023-03-10T02:41:08.437Z,5.61
2023-03-10T02:41:36.015Z,5.61
2023-03-10T02:41:56.631Z,5.61
2023-03-10T02:42:28.359Z,5.61
2023-03-10T02:42:59.657Z,5.61
2023-03-10T02:43:17.024Z,5.61
2023-03-10T02:43:37.672Z,5.61
2023-03-10T02:44:03.894Z,5.61
2023-03-10T02:44:36.697Z,5.72
2023-03-10T02:45:08.101Z,5.72
2023-03-10T02:45:36.751Z,5.72
2023-03-10T02:45:57.200Z,5.72
2023-03-10T02:46:27.528Z,5.72
2023-03-10T02:46:59.566Z,5.72
2023-03-10T02:47:32.059Z,5.72
2023-03-10T02:48:03.396Z,5.72
2023-03-10T02:48:36.262Z,5.72
2023-03-10T02:49:07.987Z,5.89
2023-03-10T02:49:36.162Z,5.72
2023-03-10T02:49:56.394Z,5.89
2023-03-10T02:50:27.659Z,5.89
2023-03-10T02:51:00.026Z,5.89
2023-03-10T02:51:16.220Z,5.72
2023-03-10T02:51:37.355Z,5.72
2023-03-10T02:52:03.645Z,5.61
2023-03-10T02:52:36.682Z,5.61
2023-03-10T02:53:07.873Z,5.61
2023-03-10T02:53:41.683Z,5.61
2023-03-10T02:54:00.298Z,5.61
2023-03-10T02:54:29.807Z,5.61
2023-03-10T02:55:02.418Z,5.61
2023-03-10T02:55:18.600Z,5.61
2023-03-10T02:55:39.880Z,5.61
2023-03-10T02:56:05.059Z,5.72
2023-03-10T02:56:37.696Z,5.72
2023-03-10T02:57:08.915Z,5.72
2023-03-10T02:57:37.783Z,5.72
2023-03-10T02:57:57.543Z,5.72
2023-03-10T02:58:28.637Z,5.72
2023-03-10T02:59:00.904Z,5.72
2023-03-10T02:59:18.702Z,5.72
2023-03-10T02:59:38.540Z,5.72
2023-03-10T03:00:07.479Z,5.72
2023-03-10T03:00:37.681Z,5.72
2023-03-10T03:01:09.580Z,5.72
2023-03-10T03:01:37.625Z,5.72
2023-03-10T03:01:57.698Z,5.72
2023-03-10T03:02:28.712Z,5.72
2023-03-10T03:03:00.640Z,5.72
2023-03-10T03:03:17.316Z,5.72
2023-03-10T03:03:38.519Z,5.72
2023-03-10T03:04:05.030Z,5.72
2023-03-10T03:04:37.572Z,5.78
2023-03-10T03:05:09.611Z,5.78
2023-03-10T03:05:37.617Z,5.78
2023-03-10T03:05:57.758Z,5.78
2023-03-10T03:06:28.608Z,5.78
2023-03-10T03:07:00.743Z,5.78
2023-03-10T03:07:17.485Z,5.78
2023-03-10T03:07:38.503Z,5.78
2023-03-10T03:08:05.078Z,5.66
2023-03-10T03:08:37.555Z,5.66
2023-03-10T03:09:09.186Z,5.66
2023-03-10T03:09:37.590Z,5.66
2023-03-10T03:09:57.509Z,5.66
2023-03-10T03:10:29.243Z,5.66
2023-03-10T03:11:01.031Z,5.66
2023-03-10T03:11:17.426Z,5.66
2023-03-10T03:11:38.629Z,5.66
2023-03-10T03:12:05.180Z,5.50
2023-03-10T03:12:37.698Z,5.50
2023-03-10T03:13:08.763Z,5.61
2023-03-10T03:13:37.610Z,5.61
2023-03-10T03:13:57.455Z,5.61
2023-03-10T03:14:28.761Z,5.61
2023-03-10T03:15:01.673Z,5.61
2023-03-10T03:15:17.380Z,5.61
2023-03-10T03:15:39.215Z,5.61
2023-03-10T03:16:05.066Z,5.61
2023-03-10T03:16:37.757Z,5.78
2023-03-10T03:17:08.768Z,5.61
2023-03-10T03:17:37.628Z,5.61
2023-03-10T03:17:57.395Z,5.61
2023-03-10T03:18:28.736Z,5.78
2023-03-10T03:19:00.610Z,5.78
2023-03-10T03:19:17.358Z,5.78
2023-03-10T03:19:38.426Z,5.78
2023-03-10T03:20:06.196Z,5.66
2023-03-10T03:20:37.579Z,5.66
2023-03-10T03:21:08.704Z,5.66
2023-03-10T03:21:37.676Z,5.66
2023-03-10T03:21:57.480Z,5.66
2023-03-10T03:22:29.046Z,5.66
2023-03-10T03:23:00.866Z,5.66
2023-03-10T03:23:17.368Z,5.66
2023-03-10T03:23:38.592Z,5.66
2023-03-10T03:24:05.075Z,5.66
2023-03-10T03:24:38.607Z,5.66
2023-03-10T03:25:09.276Z,5.66
2023-03-10T03:25:37.708Z,5.66
2023-03-10T03:25:57.788Z,5.66
2023-03-10T03:26:28.861Z,5.66
2023-03-10T03:27:00.803Z,5.66
2023-03-10T03:27:17.337Z,5.66
2023-03-10T03:27:38.643Z,5.66
2023-03-10T03:28:04.953Z,5.66
2023-03-10T03:28:37.886Z,5.66
2023-03-10T03:29:08.786Z,5.66
2023-03-10T03:29:37.623Z,5.66
2023-03-10T03:29:57.519Z,5.66
2023-03-10T03:30:31.136Z,5.66
2023-03-10T03:31:00.613Z,5.73
2023-03-10T03:31:17.447Z,5.73
2023-03-10T03:31:38.474Z,5.55
2023-03-10T03:32:05.010Z,5.55
2023-03-10T03:32:37.735Z,5.55
2023-03-10T03:33:09.083Z,5.55
2023-03-10T03:33:37.620Z,5.55
2023-03-10T03:33:57.571Z,5.55
2023-03-10T03:34:28.681Z,5.55
2023-03-10T03:35:01.571Z,5.55
2023-03-10T03:35:17.303Z,5.55
2023-03-10T03:35:39.041Z,5.66
2023-03-10T03:36:05.140Z,5.66
2023-03-10T03:36:37.674Z,5.66
2023-03-10T03:37:08.791Z,5.66
2023-03-10T03:37:37.691Z,5.66
2023-03-10T03:37:57.471Z,5.84
2023-03-10T03:38:28.726Z,5.66
2023-03-10T03:39:00.829Z,5.66
2023-03-10T03:39:17.500Z,5.66
2023-03-10T03:39:38.603Z,5.78
2023-03-10T03:40:06.387Z,5.78
2023-03-10T03:40:37.856Z,5.78
2023-03-10T03:41:08.813Z,5.78
2023-03-10T03:41:37.779Z,5.78
2023-03-10T03:41:57.508Z,5.66
2023-03-10T03:42:28.588Z,5.78
2023-03-10T03:43:00.606Z,5.78
2023-03-10T03:43:17.374Z,5.78
2023-03-10T03:43:38.742Z,5.78
2023-03-10T03:44:05.046Z,5.78
2023-03-10T03:44:37.974Z,5.84
2023-03-10T03:45:09.692Z,5.84
2023-03-10T03:45:38.285Z,5.84
2023-03-10T03:45:58.093Z,5.84
2023-03-10T03:46:28.680Z,5.66
2023-03-10T03:47:00.720Z,5.66
2023-03-10T03:47:17.403Z,5.84
2023-03-10T03:47:39.122Z,5.84
2023-03-10T03:48:04.915Z,5.84
2023-03-10T03:48:37.599Z,5.84
2023-03-10T03:49:08.835Z,5.66
2023-03-10T03:49:37.622Z,5.66
2023-03-10T03:49:57.469Z,5.84
2023-03-10T03:50:29.038Z,5.66
2023-03-10T03:51:00.719Z,5.66
2023-03-10T03:51:17.531Z,5.66
2023-03-10T03:51:38.585Z,5.66
2023-03-10T03:52:04.964Z,5.78
2023-03-10T03:52:37.728Z,5.78
2023-03-10T03:53:08.786Z,5.78
2023-03-10T03:53:37.749Z,5.78
2023-03-10T03:53:57.815Z,5.78
2023-03-10T03:54:28.667Z,5.78
2023-03-10T03:55:01.405Z,5.96
2023-03-10T03:55:17.403Z,5.78
2023-03-10T03:55:39.054Z,5.78
2023-03-10T03:56:05.698Z,5.96
2023-03-10T03:56:37.577Z,5.96
2023-03-10T03:57:09.122Z,5.78
2023-03-10T03:57:37.777Z,5.78
2023-03-10T03:57:57.733Z,5.78
2023-03-10T03:58:28.701Z,5.96
2023-03-10T03:59:00.816Z,5.96
2023-03-10T03:59:17.401Z,5.96
2023-03-10T03:59:38.726Z,5.96
2023-03-10T04:00:06.746Z,5.96
2023-03-10T04:00:37.637Z,5.78
2023-03-10T04:01:09.363Z,5.96
2023-03-10T04:01:37.732Z,5.96
2023-03-10T04:01:57.523Z,5.96
2023-03-10T04:02:28.847Z,5.96
2023-03-10T04:03:00.614Z,5.78
2023-03-10T04:03:17.377Z,5.78
2023-03-10T04:03:38.653Z,5.78
2023-03-10T04:04:04.884Z,5.89
2023-03-10T04:04:37.804Z,5.89
2023-03-10T04:05:09.286Z,5.89
2023-03-10T04:05:38.126Z,5.89
2023-03-10T04:05:57.812Z,5.89
2023-03-10T04:06:28.786Z,5.89
2023-03-10T04:07:00.794Z,5.89
2023-03-10T04:07:17.521Z,6.06
2023-03-10T04:07:38.644Z,6.06
2023-03-10T04:08:05.011Z,6.06
2023-03-10T04:08:37.602Z,5.89
2023-03-10T04:09:09.270Z,6.06
2023-03-10T04:09:37.656Z,6.06
2023-03-10T04:09:57.612Z,6.06
2023-03-10T04:10:29.198Z,6.06
2023-03-10T04:11:00.683Z,6.06
2023-03-10T04:11:17.370Z,5.96
2023-03-10T04:11:38.483Z,5.96
2023-03-10T04:12:04.967Z,5.96
2023-03-10T04:12:37.769Z,5.96
2023-03-10T04:13:08.869Z,5.89
2023-03-10T04:13:37.658Z,5.89
2023-03-10T04:13:57.652Z,6.06
2023-03-10T04:14:28.723Z,5.89
2023-03-10T04:15:01.797Z,6.06
2023-03-10T04:15:17.546Z,6.06
2023-03-10T04:15:39.045Z,6.06
2023-03-10T04:16:05.083Z,6.06
2023-03-10T04:16:37.646Z,6.06
2023-03-10T04:17:11.167Z,6.06
2023-03-10T04:17:38.051Z,6.17
2023-03-10T04:17:57.519Z,6.06
2023-03-10T04:18:28.701Z,6.06
2023-03-10T04:19:00.721Z,6.06
2023-03-10T04:19:17.314Z,6.06
2023-03-10T04:19:38.517Z,6.06
2023-03-10T04:20:08.096Z,6.06
2023-03-10T04:20:37.929Z,6.06
2023-03-10T04:21:09.662Z,6.06
2023-03-10T04:21:37.615Z,6.06
2023-03-10T04:21:57.476Z,6.06
2023-03-10T04:22:28.706Z,6.06
2023-03-10T04:23:00.680Z,6.06
2023-03-10T04:23:17.392Z,6.06
2023-03-10T04:23:38.530Z,6.06
2023-03-10T04:24:05.135Z,6.06
2023-03-10T04:24:37.679Z,6.06
2023-03-10T04:25:09.629Z,6.06
2023-03-10T04:25:37.802Z,6.06
2023-03-10T04:25:57.792Z,6.06
2023-03-10T04:26:28.760Z,6.06
2023-03-10T04:27:00.800Z,6.06
2023-03-10T04:27:17.387Z,6.06
2023-03-10T04:27:38.642Z,6.06
2023-03-10T04:28:05.094Z,6.06
2023-03-10T04:28:37.646Z,6.06
2023-03-10T04:29:08.810Z,6.06
2023-03-10T04:29:37.853Z,6.06
2023-03-10T04:29:57.472Z,6.17
2023-03-10T04:30:29.708Z,6.17
2023-03-10T04:31:00.743Z,6.17
2023-03-10T04:31:17.449Z,5.99
2023-03-10T04:31:38.827Z,6.17
2023-03-10T04:32:06.002Z,5.99
2023-03-10T04:32:37.532Z,5.99
2023-03-10T04:33:08.756Z,5.99
2023-03-10T04:33:37.564Z,6.04
2023-03-10T04:33:57.692Z,6.22
2023-03-10T04:34:28.723Z,6.22
2023-03-10T04:35:01.361Z,6.22
2023-03-10T04:35:17.427Z,6.22
2023-03-10T04:35:38.994Z,6.22
2023-03-10T04:36:05.017Z,6.22
2023-03-10T04:36:37.641Z,6.04
2023-03-10T04:37:08.830Z,6.04
2023-03-10T04:37:37.751Z,6.04
2023-03-10T04:37:57.838Z,6.04
2023-03-10T04:38:28.664Z,6.22
2023-03-10T04:39:00.636Z,6.22
2023-03-10T04:39:17.381Z,6.22
2023-03-10T04:39:38.593Z,6.22
2023-03-10T04:40:06.377Z,6.22
2023-03-10T04:40:37.532Z,6.22
2023-03-10T04:41:08.856Z,6.22
2023-03-10T04:41:37.626Z,6.22
2023-03-10T04:41:57.855Z,6.17
2023-03-10T04:42:28.701Z,6.17
2023-03-10T04:43:00.794Z,6.17
2023-03-10T04:43:17.479Z,6.17
2023-03-10T04:43:40.096Z,5.99
2023-03-10T04:44:05.184Z,5.99
2023-03-10T04:44:37.592Z,5.99
2023-03-10T04:45:09.733Z,5.99
2023-03-10T04:45:37.729Z,6.04
2023-03-10T04:45:58.296Z,6.04
2023-03-10T04:46:28.809Z,6.04
2023-03-10T04:47:01.120Z,6.22
2023-03-10T04:47:17.420Z,6.22
2023-03-10T04:47:38.572Z,6.22
2023-03-10T04:48:04.936Z,6.22
2023-03-10T04:48:37.557Z,6.22
2023-03-10T04:49:08.807Z,6.22
2023-03-10T04:49:37.614Z,6.17
2023-03-10T04:49:57.531Z,6.17
2023-03-10T04:50:29.072Z,6.17
2023-03-10T04:51:00.685Z,6.17
2023-03-10T04:51:18.904Z,6.06
2023-03-10T04:51:38.535Z,6.06
2023-03-10T04:52:05.165Z,6.06
2023-03-10T04:52:37.700Z,6.06
2023-03-10T04:53:08.784Z,6.06
2023-03-10T04:53:37.813Z,6.06
2023-03-10T04:53:57.714Z,6.06
2023-03-10T04:54:28.605Z,6.17
2023-03-10T04:55:01.356Z,6.17
2023-03-10T04:55:17.484Z,6.17
2023-03-10T04:55:38.939Z,6.17
2023-03-10T04:56:05.806Z,6.17
2023-03-10T04:56:37.841Z,6.17
2023-03-10T04:57:09.358Z,6.17
2023-03-10T04:57:37.693Z,6.17
2023-03-10T04:57:57.540Z,6.17
2023-03-10T04:58:28.758Z,6.17
2023-03-10T04:59:00.791Z,6.22
2023-03-10T04:59:17.557Z,6.22
2023-03-10T04:59:38.712Z,6.22
2023-03-10T05:00:07.857Z,6.22
2023-03-10T05:00:37.685Z,6.22
2023-03-10T05:01:09.880Z,6.22
2023-03-10T05:01:37.925Z,6.22
2023-03-10T05:01:57.697Z,6.22
2023-03-10T05:02:29.317Z,6.22
2023-03-10T05:03:03.246Z,6.22
2023-03-10T05:03:32.831Z,6.22
2023-03-10T05:04:05.255Z,6.04
2023-03-10T05:04:37.734Z,6.04
2023-03-10T05:05:09.498Z,6.22
2023-03-10T05:05:37.814Z,6.22
2023-03-10T05:05:58.089Z,6.22
2023-03-10T05:06:28.687Z,6.22
2023-03-10T05:07:00.677Z,6.33
2023-03-10T05:07:17.581Z,6.15
2023-03-10T05:07:38.631Z,6.15
2023-03-10T05:08:05.326Z,6.33
2023-03-10T05:08:37.793Z,6.15
2023-03-10T05:09:09.189Z,6.33
2023-03-10T05:09:37.590Z,6.33
2023-03-10T05:09:57.534Z,6.15
2023-03-10T05:10:29.057Z,6.15
2023-03-10T05:11:00.747Z,6.33
2023-03-10T05:11:17.614Z,6.33
2023-03-10T05:11:38.750Z,6.33
2023-03-10T05:12:05.070Z,6.33
2023-03-10T05:12:37.912Z,6.33
2023-03-10T05:13:08.807Z,6.33
2023-03-10T05:13:37.690Z,6.33
2023-03-10T05:13:57.473Z,6.33
2023-03-10T05:14:28.597Z,6.33
2023-03-10T05:15:01.858Z,6.33
2023-03-10T05:15:17.464Z,6.33
2023-03-10T05:15:38.986Z,6.33
2023-03-10T05:16:05.443Z,6.22
2023-03-10T05:16:37.653Z,6.22
2023-03-10T05:17:09.092Z,6.22
2023-03-10T05:17:37.799Z,6.22
2023-03-10T05:17:57.546Z,6.22
2023-03-10T05:18:28.827Z,6.15
2023-03-10T05:19:00.785Z,6.15
2023-03-10T05:19:17.419Z,6.15
2023-03-10T05:19:38.550Z,6.15
2023-03-10T05:20:06.245Z,6.15
2023-03-10T05:20:37.798Z,6.15
2023-03-10T05:21:08.976Z,6.27
2023-03-10T05:21:37.555Z,6.27
2023-03-10T05:21:57.572Z,6.27
2023-03-10T05:22:28.745Z,6.27
2023-03-10T05:23:00.760Z,6.27
2023-03-10T05:23:17.628Z,6.27
2023-03-10T05:23:38.568Z,6.27
2023-03-10T05:24:05.029Z,6.27
2023-03-10T05:24:37.673Z,6.27
2023-03-10T05:25:10.173Z,6.27
2023-03-10T05:25:37.675Z,6.27
2023-03-10T05:25:57.964Z,6.27
2023-03-10T05:26:28.671Z,6.27
2023-03-10T05:27:00.663Z,6.27
2023-03-10T05:27:17.928Z,6.27
2023-03-10T05:27:55.148Z,6.27
2023-03-10T05:28:05.156Z,6.27
2023-03-10T05:28:38.013Z,6.27
2023-03-10T05:29:09.200Z,6.27
2023-03-10T05:29:37.887Z,6.27
2023-03-10T05:29:58.098Z,6.27
2023-03-10T05:30:29.631Z,6.27
2023-03-10T05:31:00.824Z,6.27
2023-03-10T05:31:17.988Z,6.27
2023-03-10T05:31:39.471Z,6.27
2023-03-10T05:32:05.903Z,6.45
2023-03-10T05:32:37.817Z,6.45
2023-03-10T05:33:09.901Z,6.27
2023-03-10T05:33:38.727Z,6.27
2023-03-10T05:33:59.536Z,6.27
2023-03-10T05:34:30.396Z,6.27
2023-03-10T05:35:04.846Z,6.45
2023-03-10T05:35:19.538Z,6.45
2023-03-10T05:35:42.170Z,6.45
2023-03-10T05:36:07.489Z,6.45
2023-03-10T05:36:39.764Z,6.45
2023-03-10T05:37:11.246Z,6.45
2023-03-10T05:37:39.473Z,6.45
2023-03-10T05:37:59.435Z,6.45
2023-03-10T05:38:32.172Z,6.45
2023-03-10T05:39:02.194Z,6.45
2023-03-10T05:39:19.312Z,6.33
2023-03-10T05:39:40.389Z,6.33
2023-03-10T05:40:10.467Z,6.33
2023-03-10T05:40:39.908Z,6.33
2023-03-10T05:41:11.564Z,6.33
2023-03-10T05:41:39.052Z,6.33
2023-03-10T05:42:02.122Z,6.33
2023-03-10T05:42:34.363Z,6.33
2023-03-10T05:43:02.066Z,6.33
2023-03-10T05:43:19.093Z,6.33
2023-03-10T05:43:40.155Z,6.33
2023-03-10T05:44:08.263Z,6.33
2023-03-10T05:44:39.751Z,6.15
2023-03-10T05:45:14.146Z,6.33
2023-03-10T05:45:39.688Z,6.33
2023-03-10T05:46:00.515Z,6.33
2023-03-10T05:46:31.868Z,6.33
2023-03-10T05:47:06.457Z,6.33
2023-03-10T05:47:24.451Z,6.33
2023-03-10T05:47:42.973Z,6.33
2023-03-10T05:48:08.697Z,6.33
2023-03-10T05:48:39.390Z,6.33
2023-03-10T05:49:11.995Z,6.33
2023-03-10T05:49:40.393Z,6.33
2023-03-10T05:49:59.099Z,6.33
2023-03-10T05:50:32.488Z,6.33
2023-03-10T05:51:03.252Z,6.33
2023-03-10T05:51:19.364Z,6.33
2023-03-10T05:51:40.946Z,6.33
2023-03-10T05:52:08.068Z,6.33
2023-03-10T05:52:42.092Z,6.33
2023-03-10T05:53:11.601Z,6.33
2023-03-10T05:53:40.020Z,6.33
2023-03-10T05:54:00.263Z,6.33
2023-03-10T05:54:32.609Z,6.45
2023-03-10T05:55:06.812Z,6.33
2023-03-10T05:55:19.211Z,6.33
2023-03-10T05:55:39.601Z,6.33
2023-03-10T05:56:05.301Z,6.33
2023-03-10T05:56:37.813Z,6.33
2023-03-10T05:57:09.139Z,6.33
2023-03-10T05:57:37.973Z,6.33
2023-03-10T05:57:57.811Z,6.33
2023-03-10T05:58:29.098Z,6.33
2023-03-10T05:59:00.884Z,6.33
2023-03-10T05:59:17.644Z,6.33
2023-03-10T05:59:38.788Z,6.33
2023-03-10T06:00:07.683Z,6.33
2023-03-10T06:00:38.049Z,6.33